Time;durP1;ratioP1;P1;durP2;ratioP2;P2;SDS_P1;SDS_P2;PMS_P1;PMS_P2;Temp;Humidity;BMP_temperature;BMP_pressure;BME280_temperature;BME280_humidity;BME280_pressure;Samples;Min_cycle;Max_cycle;Signal;HPM_P1;HPM_P2
2021/04/26 00:02:09;;;;;;;8.38;2.25;;;;;;;3.79;63.12;102482.34;5014030;28;20046;-48
2021/04/26 00:04:36;;;;;;;6.80;1.58;;;;;;;3.79;63.30;102477.16;5013118;28;20093;-48
2021/04/26 00:07:03;;;;;;;5.35;1.70;;;;;;;3.76;63.08;102483.25;5012858;28;20056;-49
2021/04/26 00:09:29;;;;;;;5.15;1.67;;;;;;;3.72;63.20;102486.75;5013730;28;20069;-48
2021/04/26 00:11:56;;;;;;;5.00;1.50;;;;;;;3.71;63.27;102483.31;5013883;28;20050;-48
2021/04/26 00:14:22;;;;;;;5.63;2.00;;;;;;;3.64;63.36;102480.78;5013608;28;20052;-51
2021/04/26 00:16:49;;;;;;;5.80;1.75;;;;;;;3.61;63.01;102486.03;5013843;28;20121;-50
2021/04/26 00:19:15;;;;;;;6.80;1.67;;;;;;;3.58;63.62;102473.91;5014249;28;20058;-47
2021/04/26 00:21:42;;;;;;;3.85;1.55;;;;;;;3.57;63.60;102476.53;5014164;28;20062;-49
2021/04/26 00:24:08;;;;;;;4.35;2.05;;;;;;;3.53;63.19;102479.16;5014178;28;20057;-47
2021/04/26 00:26:35;;;;;;;7.97;1.67;;;;;;;3.52;63.35;102474.81;5014320;28;20052;-47
2021/04/26 00:29:01;;;;;;;3.75;1.50;;;;;;;3.49;63.72;102472.25;5029448;28;20052;-46
2021/04/26 00:31:28;;;;;;;5.72;1.70;;;;;;;3.45;63.59;102467.97;5013954;28;20112;-46
2021/04/26 00:33:54;;;;;;;6.15;1.73;;;;;;;3.47;63.67;102465.34;4996282;28;20520;-52
2021/04/26 00:36:21;;;;;;;8.15;1.83;;;;;;;3.42;64.05;102465.38;5013390;28;20042;-49
2021/04/26 00:38:48;;;;;;;6.63;1.75;;;;;;;3.35;64.02;102456.78;5013507;28;20046;-47
2021/04/26 00:41:14;;;;;;;4.75;1.75;;;;;;;3.34;64.00;102459.38;5013448;28;20052;-50
2021/04/26 00:43:40;;;;;;;5.60;1.80;;;;;;;3.28;64.25;102451.66;5014004;28;20053;-51
2021/04/26 00:46:07;;;;;;;5.32;1.58;;;;;;;3.28;64.12;102449.91;4996430;28;20436;-48
2021/04/26 00:48:33;;;;;;;5.68;1.90;;;;;;;3.26;64.41;102451.66;5013835;28;20532;-46
2021/04/26 00:50:59;;;;;;;6.10;2.13;;;;;;;3.27;64.16;102439.50;5012765;28;20053;-50
2021/04/26 00:53:26;;;;;;;6.03;2.13;;;;;;;3.27;64.36;102442.97;5013737;28;20388;-48
2021/04/26 00:55:52;;;;;;;6.45;1.70;;;;;;;3.33;63.90;102437.72;5013888;28;20111;-50
2021/04/26 00:58:18;;;;;;;5.05;1.73;;;;;;;3.31;63.94;102430.81;4995925;28;20436;-50
2021/04/26 01:00:45;;;;;;;3.45;1.70;;;;;;;3.25;63.98;102429.13;4996106;28;20049;-52
2021/04/26 01:03:11;;;;;;;5.30;1.52;;;;;;;3.30;63.72;102429.94;5012152;28;20049;-47
2021/04/26 01:05:37;;;;;;;6.78;1.58;;;;;;;3.27;63.98;102426.50;5012161;28;20052;-48
2021/04/26 01:08:04;;;;;;;7.60;2.15;;;;;;;3.17;63.68;102434.38;5012211;28;20046;-51
2021/04/26 01:10:33;;;;;;;6.55;1.55;;;;;;;3.07;64.59;102427.56;5012260;28;20045;-48
2021/04/26 01:13:24;;;;;;;5.70;1.77;;;;;;;3.13;64.37;102424.88;5012488;28;20104;-47
2021/04/26 01:15:51;;;;;;;3.38;1.67;;;;;;;3.02;64.87;102421.53;5013324;28;20064;-47
2021/04/26 01:18:43;;;;;;;5.22;1.70;;;;;;;3.02;65.28;102431.94;5013002;28;20056;-48
2021/04/26 01:21:27;;;;;;;7.55;1.63;;;;;;;2.96;65.71;102429.38;5013006;28;20715;-48
2021/04/26 01:24:15;;;;;;;3.30;1.77;;;;;;;2.93;65.63;102434.59;5013296;28;20046;-47
2021/04/26 01:27:22;;;;;;;5.63;2.20;;;;;;;2.94;65.76;102426.78;5013103;28;20038;-50
2021/04/26 01:30:15;;;;;;;8.45;1.98;;;;;;;2.93;65.86;102419.88;4952461;29;20051;-49
2021/04/26 01:33:06;;;;;;;4.72;1.83;;;;;;;2.81;66.39;102418.22;5011849;28;20448;-46
2021/04/26 01:35:33;;;;;;;6.00;2.10;;;;;;;2.83;65.95;102418.22;5011904;28;20054;-48
2021/04/26 01:38:08;;;;;;;6.45;1.75;;;;;;;2.80;66.34;102419.09;5011915;28;20057;-48
2021/04/26 01:40:35;;;;;;;6.30;1.70;;;;;;;2.84;65.95;102414.75;5011953;28;20045;-47
2021/04/26 01:43:02;;;;;;;7.00;2.10;;;;;;;2.77;66.50;102406.13;5011659;28;20096;-47
2021/04/26 01:45:29;;;;;;;5.38;1.80;;;;;;;2.73;66.52;102401.84;5010743;28;20388;-46
2021/04/26 01:47:56;;;;;;;8.40;1.95;;;;;;;2.77;66.20;102406.13;5011521;28;20069;-51
2021/04/26 01:50:23;;;;;;;4.80;1.90;;;;;;;2.68;66.55;102394.06;5012624;28;20049;-48
2021/04/26 01:52:51;;;;;;;5.78;2.00;;;;;;;2.61;67.05;102396.72;5011802;28;20447;-50
2021/04/26 01:55:19;;;;;;;7.18;1.67;;;;;;;2.57;67.23;102393.28;5012440;28;20038;-50
2021/04/26 01:57:46;;;;;;;7.03;1.90;;;;;;;2.61;67.01;102401.91;4995019;28;20050;-47
2021/04/26 02:00:14;;;;;;;6.00;2.13;;;;;;;2.56;67.34;102401.09;5011209;28;20413;-49
2021/04/26 02:02:42;;;;;;;7.05;2.28;;;;;;;2.66;66.90;102394.97;5012482;28;20053;-51
2021/04/26 02:05:09;;;;;;;5.20;2.10;;;;;;;2.61;67.36;102383.75;5011206;28;20124;-48
2021/04/26 02:07:37;;;;;;;6.32;1.90;;;;;;;2.69;66.98;102390.59;5012761;28;20735;-49
2021/04/26 02:10:06;;;;;;;7.40;2.20;;;;;;;2.53;67.48;102389.81;5011269;28;20064;-47
2021/04/26 02:12:33;;;;;;;7.00;2.53;;;;;;;2.53;67.51;102391.56;5011293;28;20052;-48
2021/04/26 02:15:00;;;;;;;9.00;2.30;;;;;;;2.52;67.40;102390.72;5011057;28;20057;-49
2021/04/26 02:17:28;;;;;;;6.05;2.35;;;;;;;2.52;67.63;102390.72;5010997;28;20050;-48
2021/04/26 02:19:55;;;;;;;5.47;2.53;;;;;;;2.47;67.74;102387.28;5011163;28;20048;-49
2021/04/26 02:22:21;;;;;;;7.40;1.88;;;;;;;2.45;67.51;102383.81;5010990;28;20042;-49
2021/04/26 02:24:47;;;;;;;8.50;2.00;;;;;;;2.44;67.72;102387.31;5012265;28;20416;-47
2021/04/26 02:27:14;;;;;;;6.75;2.17;;;;;;;2.41;67.88;102383.88;5011975;28;20046;-46
2021/04/26 02:29:40;;;;;;;7.80;2.42;;;;;;;2.37;68.62;102383.00;5012354;28;20077;-48
2021/04/26 02:32:09;;;;;;;6.63;2.00;;;;;;;2.36;68.48;102376.13;5012537;28;20049;-50
2021/04/26 02:34:41;;;;;;;4.97;1.83;;;;;;;2.38;68.25;102387.34;5011013;28;20104;-49
2021/04/26 02:37:32;;;;;;;9.63;1.98;;;;;;;2.32;68.34;102379.59;5010814;28;20042;-48
2021/04/26 02:40:10;;;;;;;8.68;2.53;;;;;;;2.33;68.49;102370.91;5010540;28;20046;-47
2021/04/26 02:42:45;;;;;;;4.40;1.90;;;;;;;2.32;68.22;102377.00;5010932;28;20120;-48
2021/04/26 02:45:15;;;;;;;4.47;1.60;;;;;;;2.32;68.23;102371.81;5010838;28;20046;-47
2021/04/26 02:47:44;;;;;;;6.47;1.88;;;;;;;2.26;68.49;102362.31;5011998;28;20574;-46
2021/04/26 02:50:15;;;;;;;8.32;2.30;;;;;;;2.28;68.31;102365.78;4994872;28;20088;-48
2021/04/26 02:52:41;;;;;;;5.57;2.00;;;;;;;2.28;68.54;102359.72;5010637;28;20093;-50
2021/04/26 02:55:09;;;;;;;5.45;1.98;;;;;;;2.30;68.33;102352.78;4994879;28;20409;-48
2021/04/26 02:57:36;;;;;;;6.03;1.80;;;;;;;2.23;68.42;102356.28;5013032;28;20045;-49
2021/04/26 03:00:08;;;;;;;7.13;2.00;;;;;;;2.26;68.26;102353.66;5014663;28;20061;-48
2021/04/26 03:02:36;;;;;;;6.53;1.98;;;;;;;2.24;68.54;102348.47;5014449;28;20448;-51
2021/04/26 03:05:04;;;;;;;6.30;1.90;;;;;;;2.22;68.31;102352.81;4998436;28;20049;-48
2021/04/26 03:07:31;;;;;;;3.67;1.52;;;;;;;2.19;68.51;102345.91;5014456;28;20054;-49
2021/04/26 03:09:59;;;;;;;4.80;1.92;;;;;;;2.18;68.64;102341.59;5014702;28;20037;-50
2021/04/26 03:12:26;;;;;;;5.45;1.75;;;;;;;2.24;68.46;102343.28;5014471;28;20049;-46
2021/04/26 03:14:53;;;;;;;9.88;1.90;;;;;;;2.15;68.42;102341.59;5014348;28;20049;-49
2021/04/26 03:17:19;;;;;;;5.15;1.60;;;;;;;2.13;68.51;102338.16;5014382;28;20097;-46
2021/04/26 03:19:46;;;;;;;7.25;1.83;;;;;;;2.12;68.86;102333.84;5015373;28;20052;-50
2021/04/26 03:22:13;;;;;;;4.57;2.10;;;;;;;2.14;69.14;102326.91;5014516;28;20054;-49
2021/04/26 03:24:39;;;;;;;4.97;2.10;;;;;;;2.12;69.23;102333.84;5015347;28;20046;-47
2021/04/26 03:27:05;;;;;;;7.60;1.95;;;;;;;2.15;69.14;102338.16;5014020;28;20092;-51
2021/04/26 03:29:32;;;;;;;4.63;2.10;;;;;;;2.07;69.55;102335.59;5013944;28;20042;-46
2021/04/26 03:31:59;;;;;;;9.75;2.10;;;;;;;2.06;69.49;102333.88;4997974;28;20046;-46
2021/04/26 03:34:27;;;;;;;7.57;2.42;;;;;;;2.00;69.65;102339.97;5015149;28;20045;-48
2021/04/26 03:36:54;;;;;;;6.63;2.13;;;;;;;1.95;70.22;102331.34;5013770;28;20052;-48
2021/04/26 03:39:20;;;;;;;8.85;2.20;;;;;;;1.98;70.15;102328.72;5013944;28;20057;-46
2021/04/26 03:41:47;;;;;;;8.95;2.20;;;;;;;1.98;70.31;102336.50;5013927;28;20061;-46
2021/04/26 03:44:16;;;;;;;6.68;2.20;;;;;;;1.99;70.39;102338.25;5014073;28;20062;-47
2021/04/26 03:46:56;;;;;;;6.40;2.30;;;;;;;1.95;70.45;102333.06;5013725;28;20497;-45
2021/04/26 03:49:23;;;;;;;6.70;2.28;;;;;;;2.00;70.33;102334.78;5014826;28;20042;-50
2021/04/26 03:51:49;;;;;;;6.05;2.15;;;;;;;1.99;70.34;102329.59;5013569;28;20386;-48
2021/04/26 03:54:16;;;;;;;6.28;1.88;;;;;;;1.95;70.38;102326.16;5013678;28;20056;-51
2021/04/26 03:56:43;;;;;;;5.18;1.75;;;;;;;1.95;70.59;102327.88;5014778;28;20046;-47
2021/04/26 03:59:09;;;;;;;4.88;1.95;;;;;;;1.95;70.87;102322.69;4997084;28;20054;-48
2021/04/26 04:01:36;;;;;;;8.77;2.28;;;;;;;1.98;70.46;102317.50;5029707;28;20512;-46
2021/04/26 04:04:03;;;;;;;9.18;2.33;;;;;;;1.86;71.31;102314.09;5014134;28;20520;-45
2021/04/26 04:06:31;;;;;;;5.32;1.88;;;;;;;1.85;71.41;102321.88;4996903;28;20058;-48
2021/04/26 04:09:01;;;;;;;10.23;1.98;;;;;;;1.90;71.22;102321.88;5013632;28;20045;-50
2021/04/26 04:11:27;;;;;;;7.22;2.05;;;;;;;1.87;71.58;102322.75;5014276;28;20048;-47
2021/04/26 04:13:54;;;;;;;8.88;2.08;;;;;;;1.88;71.06;102319.25;5013355;28;20501;-48
2021/04/26 04:16:21;;;;;;;5.55;1.77;;;;;;;1.86;71.56;102311.47;5013999;28;20042;-46
2021/04/26 04:18:48;;;;;;;5.75;1.70;;;;;;;1.83;71.76;102315.84;5014450;28;20100;-47
2021/04/26 04:21:14;;;;;;;7.43;2.10;;;;;;;1.88;71.16;102313.22;5013084;28;20076;-47
2021/04/26 04:23:41;;;;;;;8.13;2.10;;;;;;;1.89;71.70;102317.53;5014203;28;20054;-50
2021/04/26 04:26:08;;;;;;;9.90;2.20;;;;;;;1.91;71.33;102306.28;5012798;28;20386;-47
2021/04/26 04:28:34;;;;;;;3.83;1.70;;;;;;;1.86;71.51;102314.09;5012884;28;20056;-46
2021/04/26 04:31:01;;;;;;;6.68;1.98;;;;;;;1.87;71.66;102307.19;5014279;28;20042;-48
2021/04/26 04:33:27;;;;;;;5.28;1.70;;;;;;;1.89;71.46;102313.22;5014148;28;20049;-46
2021/04/26 04:35:56;;;;;;;6.28;1.90;;;;;;;1.86;71.75;102310.63;5014220;28;20057;-43
2021/04/26 04:38:23;;;;;;;7.60;2.35;;;;;;;1.80;72.17;102315.84;5013553;28;20061;-45
2021/04/26 04:40:50;;;;;;;8.90;2.15;;;;;;;1.76;72.07;102309.81;5013994;28;20125;-48
2021/04/26 04:43:16;;;;;;;4.30;2.20;;;;;;;1.79;72.16;102307.22;5014113;28;20050;-46
2021/04/26 04:45:42;;;;;;;6.10;2.22;;;;;;;1.77;72.75;102305.50;5013483;28;20129;-47
2021/04/26 04:48:09;;;;;;;6.70;2.10;;;;;;;1.82;72.42;102309.78;5013315;28;20046;-47
2021/04/26 04:50:35;;;;;;;5.47;2.10;;;;;;;1.85;72.14;102304.59;5012025;28;20092;-48
2021/04/26 04:53:02;;;;;;;8.25;2.40;;;;;;;1.85;72.46;102302.00;5013211;28;20077;-45
2021/04/26 04:55:29;;;;;;;5.90;2.25;;;;;;;1.95;72.25;102299.34;5012928;28;20674;-46
2021/04/26 04:57:55;;;;;;;4.35;1.90;;;;;;;1.93;72.16;102301.94;5013506;28;20038;-46
2021/04/26 05:00:21;;;;;;;4.80;2.10;;;;;;;1.90;72.57;102295.94;5012293;28;20049;-47
2021/04/26 05:02:48;;;;;;;4.53;2.13;;;;;;;1.94;72.67;102293.28;5013709;28;20056;-48
2021/04/26 05:05:14;;;;;;;9.45;3.05;;;;;;;1.99;72.32;102298.44;5013419;28;20456;-49
2021/04/26 05:07:40;;;;;;;5.97;2.05;;;;;;;2.04;72.46;102294.09;5013377;28;20054;-48
2021/04/26 05:10:08;;;;;;;5.43;2.00;;;;;;;2.05;72.10;102295.81;5012071;28;20058;-46
2021/04/26 05:12:34;;;;;;;7.78;1.90;;;;;;;2.08;71.79;102292.34;5012990;28;20050;-46
2021/04/26 05:15:02;;;;;;;9.20;2.33;;;;;;;2.10;72.17;102293.19;5013200;28;20121;-47
2021/04/26 05:17:28;;;;;;;5.78;2.53;;;;;;;2.15;71.53;102294.88;5011644;28;20385;-48
2021/04/26 05:19:55;;;;;;;9.68;2.40;;;;;;;2.21;71.51;102296.59;5010535;28;20058;-51
2021/04/26 05:22:21;;;;;;;3.65;1.65;;;;;;;2.25;71.80;102292.22;5013157;28;20096;-47
2021/04/26 05:24:48;;;;;;;7.47;2.10;;;;;;;2.30;71.44;102295.66;5013068;28;20378;-45
2021/04/26 05:27:14;;;;;;;6.15;1.77;;;;;;;2.35;71.16;102293.88;5011960;28;20045;-48
2021/04/26 05:29:40;;;;;;;5.30;1.95;;;;;;;2.40;71.21;102292.13;5013000;28;20444;-50
2021/04/26 05:32:07;;;;;;;6.38;1.90;;;;;;;2.45;70.35;102289.47;5012833;28;20081;-46
2021/04/26 05:34:33;;;;;;;5.35;2.00;;;;;;;2.48;70.48;102298.13;5013002;28;20043;-50
2021/04/26 05:37:00;;;;;;;7.82;1.95;;;;;;;2.54;70.25;102290.25;4995358;28;20046;-45
2021/04/26 05:39:27;;;;;;;4.22;1.45;;;;;;;2.63;69.92;102297.13;5011136;28;20468;-48
2021/04/26 05:41:53;;;;;;;6.97;1.60;;;;;;;2.70;70.29;102288.41;5011450;28;20050;-48
2021/04/26 05:44:20;;;;;;;4.28;1.80;;;;;;;2.78;70.07;102287.44;4994865;28;20046;-47
2021/04/26 05:46:46;;;;;;;5.72;1.90;;;;;;;2.99;68.81;102294.19;4995074;28;20054;-46
2021/04/26 05:49:12;;;;;;;5.93;2.03;;;;;;;2.98;69.48;102288.13;5011665;28;20050;-49
2021/04/26 05:51:39;;;;;;;5.72;1.67;;;;;;;3.06;68.88;102290.66;5012438;28;20053;-47
2021/04/26 05:54:05;;;;;;;7.18;1.70;;;;;;;3.12;68.47;102295.78;5012462;28;20544;-48
2021/04/26 05:56:32;;;;;;;4.95;1.70;;;;;;;3.20;67.95;102290.50;5010805;28;20096;-51
2021/04/26 05:58:58;;;;;;;6.38;1.80;;;;;;;3.40;67.25;102290.28;5011047;28;20141;-49
2021/04/26 06:01:25;;;;;;;6.35;1.75;;;;;;;3.49;66.62;102290.16;5012539;28;20049;-51
2021/04/26 06:03:51;;;;;;;4.93;1.92;;;;;;;3.60;66.21;102289.16;5011272;28;20073;-45
2021/04/26 06:06:18;;;;;;;12.50;2.55;;;;;;;3.69;65.63;102291.63;5011046;28;20054;-46
2021/04/26 06:08:44;;;;;;;7.82;1.80;;;;;;;3.83;65.49;102287.13;5012324;28;20129;-46
2021/04/26 06:11:11;;;;;;;4.38;1.90;;;;;;;3.96;65.42;102281.75;5012281;28;20042;-45
2021/04/26 06:13:38;;;;;;;8.35;1.83;;;;;;;4.07;64.96;102285.03;5012085;28;20049;-48
2021/04/26 06:16:06;;;;;;;7.47;2.25;;;;;;;4.16;65.07;102276.22;5012104;28;20519;-47
2021/04/26 06:18:33;;;;;;;4.55;1.73;;;;;;;4.24;64.79;102284.78;5012077;28;20042;-52
2021/04/26 06:20:59;;;;;;;7.80;2.05;;;;;;;4.38;64.61;102281.97;5010818;28;20521;-48
2021/04/26 06:23:26;;;;;;;3.13;1.55;;;;;;;4.46;63.89;102281.81;5010830;28;20049;-47
2021/04/26 06:25:52;;;;;;;4.05;1.88;;;;;;;4.54;63.41;102275.59;5012229;28;20042;-46
2021/04/26 06:28:18;;;;;;;4.50;1.60;;;;;;;4.68;62.33;102282.34;5011937;28;20052;-46
2021/04/26 06:30:46;;;;;;;4.60;1.60;;;;;;;4.82;61.85;102277.72;5012120;28;20515;-47
2021/04/26 06:33:15;;;;;;;5.80;1.70;;;;;;;4.98;60.48;102282.66;5012170;28;20053;-45
2021/04/26 06:35:44;;;;;;;5.57;1.90;;;;;;;5.04;60.41;102285.16;5010811;28;20053;-45
2021/04/26 06:38:10;;;;;;;5.97;1.70;;;;;;;5.17;59.84;102291.84;5011931;28;20489;-46
2021/04/26 06:40:38;;;;;;;5.45;1.55;;;;;;;5.23;60.39;102285.66;5012246;28;20050;-49
2021/04/26 06:43:05;;;;;;;6.65;1.90;;;;;;;5.36;59.46;102289.75;4994745;28;20042;-47
2021/04/26 06:45:32;;;;;;;3.28;1.52;;;;;;;5.44;59.09;102289.59;5010889;28;20058;-47
2021/04/26 06:47:58;;;;;;;6.25;1.92;;;;;;;5.50;58.72;102286.00;5010842;28;20485;-46
2021/04/26 06:50:25;;;;;;;5.97;1.90;;;;;;;5.59;57.76;102284.03;5011083;28;20042;-47
2021/04/26 06:52:54;;;;;;;4.18;1.52;;;;;;;5.69;57.71;102283.84;5012105;28;20505;-46
2021/04/26 06:55:20;;;;;;;5.75;1.80;;;;;;;5.79;57.45;102282.75;4994779;28;20054;-46
2021/04/26 06:57:47;;;;;;;7.25;1.63;;;;;;;5.88;55.89;102277.31;5011918;28;20505;-47
2021/04/26 07:00:14;;;;;;;7.70;1.95;;;;;;;5.96;56.28;102271.94;5011979;28;20050;-48
2021/04/26 07:02:40;;;;;;;5.65;1.98;;;;;;;6.09;55.64;102267.31;5010622;28;20053;-47
2021/04/26 07:05:08;;;;;;;5.53;2.10;;;;;;;6.23;55.98;102265.22;5011989;28;20057;-49
2021/04/26 07:07:35;;;;;;;5.50;1.65;;;;;;;6.38;55.60;102264.00;5010985;28;20054;-49
2021/04/26 07:10:03;;;;;;;4.85;1.77;;;;;;;6.57;55.26;102259.16;5010755;28;20501;-49
2021/04/26 07:12:29;;;;;;;5.35;2.10;;;;;;;6.76;54.78;102263.91;5010700;28;20049;-46
2021/04/26 07:14:56;;;;;;;6.68;2.35;;;;;;;6.86;53.95;102262.75;5012391;28;20488;-46
2021/04/26 07:17:23;;;;;;;5.03;2.22;;;;;;;7.01;54.38;102258.00;5011765;28;20046;-46
2021/04/26 07:19:50;;;;;;;4.13;1.85;;;;;;;7.17;53.66;102254.09;5011730;28;20057;-51
2021/04/26 07:22:16;;;;;;;5.57;2.30;;;;;;;7.29;53.08;102250.22;5026922;28;20448;-49
2021/04/26 07:24:43;;;;;;;5.95;2.00;;;;;;;7.37;53.97;102250.03;5011814;28;20054;-49
2021/04/26 07:27:11;;;;;;;5.40;1.80;;;;;;;7.50;52.90;102253.13;5010400;28;20042;-51
2021/04/26 07:29:37;;;;;;;6.07;1.80;;;;;;;7.61;52.58;102261.53;5011550;28;20046;-48
2021/04/26 07:32:05;;;;;;;6.00;2.20;;;;;;;7.56;51.98;102261.66;5011707;28;20042;-45
2021/04/26 07:34:31;;;;;;;3.95;1.45;;;;;;;7.74;50.92;102260.25;5011583;28;20046;-46
2021/04/26 07:36:58;;;;;;;4.05;1.75;;;;;;;7.81;51.31;102258.28;5010291;28;20062;-47
2021/04/26 07:39:25;;;;;;;4.45;2.03;;;;;;;8.01;50.15;102251.59;5011334;28;20050;-50
2021/04/26 07:41:51;;;;;;;5.00;1.80;;;;;;;8.16;50.27;102256.31;5010474;28;20042;-46
2021/04/26 07:44:18;;;;;;;4.47;1.80;;;;;;;8.17;49.89;102258.03;5013534;28;20049;-49
2021/04/26 07:46:45;;;;;;;3.13;1.58;;;;;;;8.32;49.83;102245.31;4997498;28;20513;-49
2021/04/26 07:49:11;;;;;;;5.15;1.70;;;;;;;8.50;49.37;102238.66;5013841;28;20088;-50
2021/04/26 07:51:38;;;;;;;4.07;1.70;;;;;;;8.72;49.02;102244.84;5013743;28;20129;-50
2021/04/26 07:54:04;;;;;;;4.00;1.85;;;;;;;8.91;49.48;102254.72;5014971;28;20053;-51
2021/04/26 07:56:31;;;;;;;4.63;1.90;;;;;;;9.15;48.89;102245.09;5014823;28;20374;-48
2021/04/26 07:58:58;;;;;;;6.53;2.15;;;;;;;9.33;48.08;102234.84;5014661;28;20124;-49
2021/04/26 08:01:24;;;;;;;4.65;1.73;;;;;;;9.55;48.06;102242.75;5013422;28;20050;-46
2021/04/26 08:03:50;;;;;;;3.45;1.98;;;;;;;9.68;47.06;102243.09;5014891;28;20046;-47
2021/04/26 08:06:17;;;;;;;6.10;1.88;;;;;;;9.88;47.46;102234.44;5014821;28;20054;-49
2021/04/26 08:08:43;;;;;;;6.00;1.85;;;;;;;10.09;47.66;102233.56;5014578;28;20050;-45
2021/04/26 08:11:10;;;;;;;5.93;1.80;;;;;;;10.13;45.68;102229.06;5014493;28;20038;-52
2021/04/26 08:13:36;;;;;;;5.05;2.17;;;;;;;10.35;45.76;102225.53;5013413;28;20053;-48
2021/04/26 08:16:03;;;;;;;6.85;2.10;;;;;;;10.59;45.54;102219.25;5013513;28;20049;-48
2021/04/26 08:18:30;;;;;;;4.15;1.80;;;;;;;10.75;44.31;102229.09;5014505;28;20038;-49
2021/04/26 08:20:57;;;;;;;6.57;1.95;;;;;;;10.83;42.95;102229.63;4996882;28;20069;-49
2021/04/26 08:23:24;;;;;;;4.75;1.75;;;;;;;10.95;43.42;102223.81;5014406;28;20544;-52
2021/04/26 08:25:50;;;;;;;4.45;1.55;;;;;;;11.11;42.88;102225.72;5014366;28;20073;-51
2021/04/26 08:28:19;;;;;;;7.07;2.10;;;;;;;11.37;42.47;102215.78;5012958;28;20584;-48
2021/04/26 08:30:47;;;;;;;6.80;1.80;;;;;;;11.67;41.66;102216.97;5012942;28;20042;-45
2021/04/26 08:33:14;;;;;;;4.95;1.70;;;;;;;11.87;40.89;102209.03;5013038;28;20054;-46
2021/04/26 08:35:40;;;;;;;2.55;1.30;;;;;;;12.09;37.98;102207.09;5014250;28;20057;-48
2021/04/26 08:38:07;;;;;;;4.65;1.58;;;;;;;12.32;37.91;102200.66;5013899;28;20556;-50
2021/04/26 08:40:34;;;;;;;3.58;1.65;;;;;;;12.62;38.18;102197.31;5013795;28;20517;-52
2021/04/26 08:43:04;;;;;;;4.32;1.42;;;;;;;12.70;36.99;102194.28;5014077;28;20457;-50
2021/04/26 08:45:31;;;;;;;5.53;1.83;;;;;;;12.63;36.99;102196.41;5013627;28;20065;-51
2021/04/26 08:47:58;;;;;;;5.82;2.00;;;;;;;12.93;35.04;102186.94;5013952;28;20052;-55
2021/04/26 08:50:29;;;;;;;3.65;1.50;;;;;;;13.27;35.92;102182.47;5013440;28;20046;-51
2021/04/26 08:52:55;;;;;;;3.15;1.58;;;;;;;13.14;35.80;102183.16;5013760;28;20052;-51
2021/04/26 08:55:22;;;;;;;4.82;1.63;;;;;;;13.28;36.46;102182.38;5011844;28;20057;-53
2021/04/26 08:57:49;;;;;;;3.28;1.50;;;;;;;13.58;33.72;102184.28;5012113;28;20153;-51
2021/04/26 09:00:17;;;;;;;5.38;1.70;;;;;;;13.61;34.13;102178.81;5012281;28;20056;-48
2021/04/26 09:02:46;;;;;;;3.60;1.55;;;;;;;13.62;33.29;102172.59;5013751;28;20060;-47
2021/04/26 09:05:21;;;;;;;4.28;1.50;;;;;;;13.78;33.70;102169.91;5013592;28;20049;-47
2021/04/26 09:07:52;;;;;;;4.15;1.65;;;;;;;14.09;32.98;102172.56;5012388;28;20092;-49
2021/04/26 09:10:50;;;;;;;3.92;1.42;;;;;;;14.13;32.81;102174.94;5013690;28;20046;-54
2021/04/26 09:13:42;;;;;;;5.65;1.55;;;;;;;14.22;31.31;102162.09;5028825;28;20507;-48
2021/04/26 09:16:11;;;;;;;3.33;1.55;;;;;;;14.19;31.72;102160.47;5010994;28;20049;-47
2021/04/26 09:19:03;;;;;;;5.55;1.77;;;;;;;14.13;31.19;102168.81;5010073;28;20409;-50
2021/04/26 09:21:35;;;;;;;3.25;1.55;;;;;;;14.56;30.60;102162.69;5028172;28;20408;-47
2021/04/26 09:24:28;;;;;;;6.35;1.70;;;;;;;14.54;31.01;102161.00;5013107;28;20042;-46
2021/04/26 09:27:01;;;;;;;3.55;1.52;;;;;;;14.66;30.35;102164.72;5012181;28;20060;-50
2021/04/26 09:29:28;;;;;;;3.88;1.80;;;;;;;14.68;30.23;102162.84;5013590;28;20534;-45
2021/04/26 09:31:58;;;;;;;4.28;1.67;;;;;;;14.76;29.52;102153.56;5013389;28;20049;-46
2021/04/26 09:34:39;;;;;;;5.85;1.80;;;;;;;15.08;29.11;102155.97;5013151;28;20069;-44
2021/04/26 09:37:14;;;;;;;3.83;1.63;;;;;;;15.31;29.20;102150.09;5012710;28;20052;-48
2021/04/26 09:40:02;;;;;;;3.60;1.70;;;;;;;15.17;28.55;102153.63;5008892;28;20077;-47
2021/04/26 09:42:55;;;;;;;3.85;1.80;;;;;;;15.24;27.18;102143.44;5010299;28;20080;-51
2021/04/26 09:45:23;;;;;;;4.20;1.70;;;;;;;15.44;26.55;102142.16;5011464;28;20061;-51
2021/04/26 09:48:03;;;;;;;3.95;1.70;;;;;;;15.71;27.62;102142.16;5012893;28;20121;-48
2021/04/26 09:50:30;;;;;;;4.13;1.77;;;;;;;15.63;27.69;102144.47;5011381;28;20057;-50
2021/04/26 09:53:07;;;;;;;4.47;1.65;;;;;;;15.89;27.57;102134.78;5011388;28;20042;-49
2021/04/26 09:55:33;;;;;;;4.32;1.92;;;;;;;15.56;27.03;102135.22;5012760;28;20532;-47
2021/04/26 09:58:02;;;;;;;6.05;2.00;;;;;;;15.89;25.32;102133.94;5012566;28;20045;-47
2021/04/26 10:00:29;;;;;;;4.15;1.83;;;;;;;15.79;25.72;102133.69;5011353;28;20126;-48
2021/04/26 10:02:55;;;;;;;4.95;1.83;;;;;;;15.98;27.04;102125.38;4995110;28;20060;-47
2021/04/26 10:05:22;;;;;;;4.80;1.80;;;;;;;15.65;25.84;102125.78;5012557;28;20049;-46
2021/04/26 10:07:51;;;;;;;4.90;2.20;;;;;;;15.97;25.76;102118.34;5012186;28;20499;-48
2021/04/26 10:10:18;;;;;;;6.15;2.20;;;;;;;15.95;26.12;102120.28;5011288;28;20053;-48
2021/04/26 10:12:44;;;;;;;7.38;2.00;;;;;;;16.03;26.57;102119.75;5011373;28;20065;-50
2021/04/26 10:15:13;;;;;;;7.47;1.83;;;;;;;16.23;25.01;102116.56;5012990;28;20509;-48
2021/04/26 10:17:41;;;;;;;5.38;1.90;;;;;;;16.26;25.14;102122.63;5011217;28;20038;-49
2021/04/26 10:20:09;;;;;;;4.45;1.63;;;;;;;16.01;24.04;102116.38;5011176;28;20064;-49
2021/04/26 10:22:42;;;;;;;5.32;1.92;;;;;;;15.69;24.79;102117.56;5011130;28;20172;-48
2021/04/26 10:25:14;;;;;;;4.53;2.15;;;;;;;16.13;23.81;102109.34;5012484;28;20399;-46
2021/04/26 10:27:44;;;;;;;4.10;1.67;;;;;;;16.39;24.44;102107.56;5011145;28;20618;-49
2021/04/26 10:30:14;;;;;;;4.20;1.80;;;;;;;16.56;26.15;102101.91;5012425;28;20568;-46
2021/04/26 10:32:55;;;;;;;4.43;1.77;;;;;;;16.79;24.60;102102.06;5012318;28;20088;-49
2021/04/26 10:35:23;;;;;;;6.65;2.67;;;;;;;16.78;25.36;102102.19;5010560;28;20076;-51
2021/04/26 10:37:50;;;;;;;3.80;1.80;;;;;;;17.03;25.14;102094.16;5007965;28;20041;-48
2021/04/26 10:40:21;;;;;;;3.60;1.80;;;;;;;17.39;24.28;102089.75;5010385;28;20049;-48
2021/04/26 10:42:52;;;;;;;4.05;1.85;;;;;;;17.37;24.96;102090.84;5027406;28;20132;-50
2021/04/26 10:45:23;;;;;;;5.72;2.00;;;;;;;17.42;25.13;102090.50;5012187;28;20042;-49
2021/04/26 10:47:59;;;;;;;4.45;2.00;;;;;;;17.60;24.37;102086.47;5011100;28;20500;-48
2021/04/26 10:50:28;;;;;;;4.22;2.05;;;;;;;17.68;23.23;102075.22;5012117;28;20046;-52
2021/04/26 10:52:56;;;;;;;4.45;1.88;;;;;;;17.61;23.56;102072.16;5011956;28;20477;-48
2021/04/26 10:55:22;;;;;;;7.43;2.38;;;;;;;17.68;23.89;102064.56;4994977;28;20116;-53
2021/04/26 10:57:52;;;;;;;3.60;1.83;;;;;;;17.81;23.56;102065.34;5010769;28;20492;-48
2021/04/26 11:00:21;;;;;;;5.82;2.17;;;;;;;17.62;24.03;102057.06;5011121;28;20052;-49
2021/04/26 11:02:54;;;;;;;6.20;1.95;;;;;;;17.58;23.58;102046.66;5011499;28;20056;-54
2021/04/26 11:05:35;;;;;;;;;;;;;;;18.10;23.65;102046.28;5012028;28;20105;-49
2021/04/26 11:10:52;;;;;;;5.43;1.85;;;;;;;17.95;23.13;102026.22;5009192;28;20618;-50
2021/04/26 11:13:31;;;;;;;3.67;2.00;;;;;;;17.83;23.30;102027.97;5010369;28;20050;-52
2021/04/26 11:16:15;;;;;;;6.75;2.20;;;;;;;18.25;23.76;102020.28;5011770;28;20050;-50
2021/04/26 11:19:06;;;;;;;5.72;2.08;;;;;;;18.66;23.13;102010.78;5011802;28;20045;-56
2021/04/26 11:21:51;;;;;;;5.35;2.22;;;;;;;18.16;22.77;102013.88;5015540;28;20056;-50
2021/04/26 11:24:27;;;;;;;4.28;2.03;;;;;;;18.16;23.08;101994.38;5014823;28;20047;-50
2021/04/26 11:27:13;;;;;;;4.38;1.80;;;;;;;18.37;23.28;102000.66;5013860;28;20509;-51
2021/04/26 11:29:42;;;;;;;4.43;1.90;;;;;;;18.72;22.93;101996.97;5012487;28;20053;-52
2021/04/26 11:32:17;;;;;;;5.35;2.17;;;;;;;18.90;22.45;101997.28;5015519;28;20046;-47
2021/04/26 11:34:47;;;;;;;3.92;1.70;;;;;;;18.96;22.40;102001.25;5015528;28;20049;-52
2021/04/26 11:37:17;;;;;;;4.18;2.08;;;;;;;18.68;22.53;101987.53;5015510;28;20095;-53
2021/04/26 11:39:44;;;;;;;4.80;1.85;;;;;;;18.87;21.96;101996.66;5015410;28;20057;-47
2021/04/26 11:42:18;;;;;;;4.90;2.10;;;;;;;18.67;22.00;101983.16;5013906;28;20053;-56
2021/04/26 11:44:44;;;;;;;5.85;2.30;;;;;;;18.88;21.75;101980.59;5013938;28;20046;-56